Aniak, AK (99557)

11:03 PM AKST on December 21, 2014 (GMT -0900)
Aniak | Change Station
CLOSE
Current Station
Airport
Location: Aniak,
Elevation: 85 ft
Nearby Weather Stations

Elev 85 ft 61.58 °N, 159.54 °W | Updated 7 minutes ago

Clear
Clear
-9 °F
Feels Like -9 °F
N
0
Wind Variable Wind from North

Today
High -- | Low -- °F
--% Chance of Precip.
Yesterday
High -- | Low -- °F
Precip. -- in
10:56 AM 4:15 PM
New Moon, 0% visible
Pressure 29.68 in
Visibility 10.0 miles
Clouds Clear
Dew Point -13 °F
Humidity 84%
Rainfall 0.00 in
Snow Depth Not available.
UV 0 out of 12
Pollen Not available.
Air Quality Not available.
Flu Activity Not available.
METAR PANI 220756Z AUTO 00000KT 10SM CLR M23/M25 A2968 RMK AO1

More Conditions Fewer Conditions

Pressure 29.68 in
Visibility 10.0 miles
Clouds Clear
Dew Point -13 °F
Humidity 84%
Rainfall 0.00 in
Snow Depth Not available.
UV 0 out of 12
Pollen Not available.
Air Quality Not available.
Flu Activity Not available.
METAR PANI 220756Z AUTO 00000KT 10SM CLR M23/M25 A2968 RMK AO1

More Conditions Fewer Conditions

10-Day Weather Forecast

Almanac

Astronomy

Dec. 21, 2014 Rise Set
Actual Time
Civil Twilight
Nautical Twilight
Astronomical Twilight
Moon
Length of Visible Light
Length of Day
Tomorrow will be .
, % of the Moon is Illuminated

Today's Extremes

State Highs State Lows

Community

WunderPhotos

Upload Photos

1,779,564 photos uploaded!

WunderBlogs® & News

Nearby

Air Quality

  Air Quality AQ Index Pollutant
Not available.

Snow Depth

Station Depth Elevation

Earthquake Activity

City Distance Mag. Time & Date
Minimum magnitude displayed is 2.5.

Coastal Water Temperatures

Place Temperature

Nearby Weather Stations